createdAt,value
2017-03-02T04:01:08.449Z,17.43
2017-03-02T04:01:33.998Z,17.44
2017-03-02T04:01:59.559Z,17.5
2017-03-02T04:02:25.139Z,17.46
2017-03-02T04:02:50.697Z,17.44
2017-03-02T04:03:16.267Z,17.44
2017-03-02T04:03:42.752Z,17.51
2017-03-02T04:04:09.285Z,17.44
2017-03-02T04:04:34.867Z,17.44
2017-03-02T04:05:00.435Z,17.44
2017-03-02T04:05:26.097Z,17.48
2017-03-02T04:05:51.666Z,17.44
2017-03-02T04:06:17.268Z,17.5
2017-03-02T04:06:42.830Z,17.4
2017-03-02T04:07:09.052Z,17.46
2017-03-02T04:07:34.630Z,17.47
2017-03-02T04:08:00.207Z,17.46
2017-03-02T04:08:26.370Z,17.47
2017-03-02T04:08:51.939Z,17.48
2017-03-02T04:09:18.189Z,17.43
2017-03-02T04:09:43.750Z,17.46
2017-03-02T04:10:09.321Z,17.51
2017-03-02T04:10:35.548Z,17.44
2017-03-02T04:11:01.175Z,17.48
2017-03-02T04:11:27.329Z,17.44
2017-03-02T04:11:52.905Z,17.48
2017-03-02T04:12:19.115Z,17.5
2017-03-02T04:12:44.686Z,17.47
2017-03-02T04:13:10.244Z,17.51
2017-03-02T04:13:36.619Z,17.51
2017-03-02T04:14:02.171Z,17.44
2017-03-02T04:14:28.256Z,17.53
2017-03-02T04:14:53.829Z,17.47
2017-03-02T04:15:19.389Z,17.51
2017-03-02T04:15:45.636Z,17.46
2017-03-02T04:16:11.203Z,17.46
2017-03-02T04:16:37.377Z,17.44
2017-03-02T04:17:02.939Z,17.48
2017-03-02T04:17:31.137Z,17.48
2017-03-02T04:17:56.687Z,17.48
2017-03-02T04:18:22.431Z,17.47
2017-03-02T04:18:48.009Z,17.51
2017-03-02T04:19:13.580Z,17.44
2017-03-02T04:19:39.213Z,17.44
2017-03-02T04:20:04.779Z,17.44
2017-03-02T04:20:30.406Z,17.46
2017-03-02T04:20:56.023Z,17.44
2017-03-02T04:21:21.583Z,17.44
2017-03-02T04:21:47.468Z,17.44
2017-03-02T04:22:13.042Z,17.4
2017-03-02T04:22:39.269Z,17.41
2017-03-02T04:23:04.855Z,17.43
2017-03-02T04:23:30.420Z,17.43
2017-03-02T04:23:56.608Z,17.46
2017-03-02T04:24:23.013Z,17.44
2017-03-02T04:24:48.671Z,17.44
2017-03-02T04:25:14.249Z,17.41
2017-03-02T04:25:39.807Z,17.43
2017-03-02T04:26:05.778Z,17.43
2017-03-02T04:26:31.327Z,17.44
2017-03-02T04:26:57.807Z,17.46
2017-03-02T04:27:23.468Z,17.47
2017-03-02T04:27:49.357Z,17.54
2017-03-02T04:28:14.919Z,17.44
2017-03-02T04:28:40.479Z,17.44
2017-03-02T04:29:06.710Z,17.43
2017-03-02T04:29:32.276Z,17.48
2017-03-02T04:29:58.492Z,17.41
2017-03-02T04:30:24.199Z,17.4
2017-03-02T04:30:49.759Z,17.41
2017-03-02T04:31:15.875Z,17.44
2017-03-02T04:31:41.435Z,17.44
2017-03-02T04:32:07.648Z,17.47
2017-03-02T04:32:33.218Z,17.48
2017-03-02T04:32:59.444Z,17.43
2017-03-02T04:33:25.305Z,17.43
2017-03-02T04:33:50.908Z,17.44
2017-03-02T04:34:16.760Z,17.44
2017-03-02T04:34:42.318Z,17.44
2017-03-02T04:35:08.579Z,17.44
2017-03-02T04:35:34.215Z,17.44
2017-03-02T04:35:59.804Z,17.47
2017-03-02T04:36:25.955Z,17.43
2017-03-02T04:36:51.528Z,17.46
2017-03-02T04:37:17.722Z,17.47
2017-03-02T04:37:43.348Z,17.48
2017-03-02T04:38:09.508Z,17.44
2017-03-02T04:38:35.068Z,17.47
2017-03-02T04:39:00.623Z,17.43
2017-03-02T04:39:26.847Z,17.43
2017-03-02T04:39:52.406Z,17.4
2017-03-02T04:40:18.672Z,17.44
2017-03-02T04:40:44.245Z,17.46
2017-03-02T04:41:09.802Z,17.47
2017-03-02T04:41:36.015Z,17.4
2017-03-02T04:42:01.586Z,17.36
2017-03-02T04:42:27.811Z,17.43
2017-03-02T04:42:53.391Z,17.43
2017-03-02T04:43:19.599Z,17.44
2017-03-02T04:43:45.162Z,17.43
2017-03-02T04:44:10.737Z,17.46
2017-03-02T04:44:36.909Z,17.46
2017-03-02T04:45:02.483Z,17.41
2017-03-02T04:45:29.270Z,17.43
2017-03-02T04:45:54.307Z,17.47
2017-03-02T04:46:19.964Z,17.47
2017-03-02T04:46:46.085Z,17.43
2017-03-02T04:47:11.682Z,17.4
2017-03-02T04:47:38.087Z,17.47
2017-03-02T04:48:03.648Z,17.46
2017-03-02T04:48:29.657Z,17.46
2017-03-02T04:48:55.286Z,17.48
2017-03-02T04:49:20.841Z,17.43
2017-03-02T04:49:47.059Z,17.46
2017-03-02T04:50:12.631Z,17.43
2017-03-02T04:50:38.805Z,17.46
2017-03-02T04:51:04.378Z,17.46
2017-03-02T04:51:30.093Z,17.41
2017-03-02T04:51:56.174Z,17.46
2017-03-02T04:52:21.847Z,17.43
2017-03-02T04:52:48.156Z,17.44
2017-03-02T04:53:13.724Z,17.46
2017-03-02T04:53:39.777Z,17.5
2017-03-02T04:54:05.436Z,17.47
2017-03-02T04:54:31.006Z,17.4
2017-03-02T04:54:57.098Z,17.48
2017-03-02T04:55:22.668Z,17.46
2017-03-02T04:55:48.936Z,17.47
2017-03-02T04:56:14.499Z,17.46
2017-03-02T04:56:40.095Z,17.43
2017-03-02T04:57:06.264Z,17.41
2017-03-02T04:57:31.948Z,17.46
2017-03-02T04:57:58.058Z,17.4
2017-03-02T04:58:23.621Z,17.46
2017-03-02T04:58:49.950Z,17.41
2017-03-02T04:59:15.545Z,17.44
2017-03-02T04:59:41.145Z,17.4
2017-03-02T05:00:07.270Z,17.41
2017-03-02T05:00:32.829Z,17.46
2017-03-02T05:00:59.022Z,17.46
2017-03-02T05:01:24.580Z,17.44
2017-03-02T05:01:50.138Z,17.44
2017-03-02T05:02:16.363Z,17.46
2017-03-02T05:02:42.555Z,17.44
2017-03-02T05:03:08.141Z,17.47
2017-03-02T05:03:33.706Z,17.44
2017-03-02T05:03:59.935Z,17.43
2017-03-02T05:04:25.491Z,17.48
2017-03-02T05:04:51.058Z,17.41
2017-03-02T05:05:17.370Z,17.4
2017-03-02T05:05:42.939Z,17.44
2017-03-02T05:06:09.126Z,17.47
2017-03-02T05:06:34.700Z,17.47
2017-03-02T05:07:00.279Z,17.44
2017-03-02T05:07:26.453Z,17.5
2017-03-02T05:07:52.018Z,17.46
2017-03-02T05:08:18.210Z,17.41
2017-03-02T05:08:44.278Z,17.48
2017-03-02T05:09:10.030Z,17.41
2017-03-02T05:09:35.592Z,17.41
2017-03-02T05:10:01.929Z,17.43
2017-03-02T05:10:27.518Z,17.4
2017-03-02T05:10:53.100Z,17.44
2017-03-02T05:11:19.257Z,17.44
2017-03-02T05:11:44.817Z,17.41
2017-03-02T05:12:10.383Z,17.41
2017-03-02T05:12:36.537Z,17.47
2017-03-02T05:13:02.100Z,17.4
2017-03-02T05:13:28.300Z,17.47
2017-03-02T05:13:53.872Z,17.48
2017-03-02T05:14:20.120Z,17.5
2017-03-02T05:14:45.751Z,17.47
2017-03-02T05:15:11.319Z,17.51
2017-03-02T05:15:37.436Z,17.44
2017-03-02T05:16:02.990Z,17.46
2017-03-02T05:16:29.337Z,17.51
2017-03-02T05:16:54.898Z,17.5
2017-03-02T05:17:20.450Z,17.51
2017-03-02T05:17:46.636Z,17.47
2017-03-02T05:18:12.200Z,17.48
2017-03-02T05:18:38.343Z,17.48
2017-03-02T05:19:03.922Z,17.44
2017-03-02T05:19:30.178Z,17.43
2017-03-02T05:19:55.728Z,17.51
2017-03-02T05:20:21.290Z,17.46
2017-03-02T05:20:47.515Z,17.44
2017-03-02T05:21:13.070Z,17.47
2017-03-02T05:21:39.321Z,17.38
2017-03-02T05:22:04.891Z,17.44
2017-03-02T05:22:30.472Z,17.54
2017-03-02T05:22:56.653Z,17.44
2017-03-02T05:23:22.235Z,17.53
2017-03-02T05:23:48.457Z,17.46
2017-03-02T05:24:14.015Z,17.41
2017-03-02T05:24:40.239Z,17.54
2017-03-02T05:25:05.799Z,17.5
2017-03-02T05:25:31.370Z,17.44
2017-03-02T05:25:57.680Z,17.46
2017-03-02T05:26:23.268Z,17.44
2017-03-02T05:26:49.377Z,17.51
2017-03-02T05:27:14.947Z,17.51
2017-03-02T05:27:40.500Z,17.48
2017-03-02T05:28:06.756Z,17.57
2017-03-02T05:28:32.868Z,17.5
2017-03-02T05:28:58.511Z,17.44
2017-03-02T05:29:24.082Z,17.53
2017-03-02T05:29:50.330Z,17.48
2017-03-02T05:30:15.900Z,17.47
2017-03-02T05:30:41.460Z,17.44
2017-03-02T05:31:07.636Z,17.46
2017-03-02T05:31:33.191Z,17.5
2017-03-02T05:31:59.475Z,17.44
2017-03-02T05:32:25.056Z,17.5
2017-03-02T05:32:50.621Z,17.44
2017-03-02T05:33:16.863Z,17.41
2017-03-02T05:33:42.482Z,17.43
2017-03-02T05:34:08.615Z,17.46
2017-03-02T05:34:34.200Z,17.47
2017-03-02T05:35:00.424Z,17.47
2017-03-02T05:35:25.999Z,17.51
2017-03-02T05:35:51.621Z,17.51
2017-03-02T05:36:17.791Z,17.48
2017-03-02T05:36:43.359Z,17.47
2017-03-02T05:37:09.649Z,17.5
2017-03-02T05:37:35.233Z,17.54
2017-03-02T05:38:00.781Z,17.51
2017-03-02T05:38:27.796Z,17.44
2017-03-02T05:38:52.608Z,17.44
2017-03-02T05:39:18.702Z,17.53
2017-03-02T05:39:44.265Z,17.48
2017-03-02T05:40:10.489Z,17.53
2017-03-02T05:40:36.061Z,17.46
2017-03-02T05:41:01.619Z,17.5
2017-03-02T05:41:27.817Z,17.48
2017-03-02T05:41:53.387Z,17.48
2017-03-02T05:42:19.628Z,17.44
2017-03-02T05:42:45.220Z,17.46
2017-03-02T05:43:10.776Z,17.44
2017-03-02T05:43:37.020Z,17.5
2017-03-02T05:44:02.594Z,17.46
2017-03-02T05:44:28.798Z,17.54
2017-03-02T05:44:54.450Z,17.54
2017-03-02T05:45:20.574Z,17.5
2017-03-02T05:45:46.131Z,17.51
2017-03-02T05:46:11.691Z,17.48
2017-03-02T05:46:37.884Z,17.53
2017-03-02T05:47:03.448Z,17.51
2017-03-02T05:47:29.722Z,17.51
2017-03-02T05:47:55.270Z,17.53
2017-03-02T05:48:20.848Z,17.5
2017-03-02T05:48:47.067Z,17.47
2017-03-02T05:49:12.650Z,17.5
2017-03-02T05:49:38.957Z,17.51
2017-03-02T05:50:04.540Z,17.5
2017-03-02T05:50:30.639Z,17.48
2017-03-02T05:50:56.303Z,17.5
2017-03-02T05:51:21.851Z,17.54
2017-03-02T05:51:47.961Z,17.55
2017-03-02T05:52:13.525Z,17.54
2017-03-02T05:52:39.782Z,17.44
2017-03-02T05:53:05.350Z,17.47
2017-03-02T05:53:30.908Z,17.48
2017-03-02T05:53:57.160Z,17.48
2017-03-02T05:54:22.762Z,17.48
2017-03-02T05:54:49.030Z,17.53
2017-03-02T05:55:14.614Z,17.48
2017-03-02T05:55:40.766Z,17.48
2017-03-02T05:56:06.362Z,17.51
2017-03-02T05:56:31.931Z,17.46
2017-03-02T05:56:58.109Z,17.51
2017-03-02T05:57:23.672Z,17.46
2017-03-02T05:57:49.901Z,17.51
2017-03-02T05:58:15.470Z,17.53
2017-03-02T05:58:41.028Z,17.48
2017-03-02T05:59:07.259Z,17.48
2017-03-02T05:59:32.949Z,17.51
2017-03-02T06:00:01.867Z,17.51
2017-03-02T06:00:27.509Z,17.48
2017-03-02T06:00:53.071Z,17.47
2017-03-02T06:01:18.632Z,17.53
2017-03-02T06:01:44.211Z,17.41
2017-03-02T06:02:09.759Z,17.51
2017-03-02T06:02:35.317Z,17.53
2017-03-02T06:03:00.881Z,17.5
2017-03-02T06:03:26.453Z,17.4
2017-03-02T06:03:52.022Z,17.46
2017-03-02T06:04:17.591Z,17.53
2017-03-02T06:04:43.168Z,17.47
2017-03-02T06:05:09.126Z,17.54
2017-03-02T06:05:35.308Z,17.48
2017-03-02T06:06:00.923Z,17.5
2017-03-02T06:06:26.478Z,17.48
2017-03-02T06:06:52.089Z,17.48
2017-03-02T06:07:18.267Z,17.54
2017-03-02T06:07:43.837Z,17.48
2017-03-02T06:08:10.055Z,17.53
2017-03-02T06:08:35.680Z,17.54
2017-03-02T06:09:01.248Z,17.53
2017-03-02T06:09:27.435Z,17.51
2017-03-02T06:09:53.060Z,17.54
2017-03-02T06:10:19.281Z,17.53
2017-03-02T06:10:44.851Z,17.54
2017-03-02T06:11:11.006Z,17.53
2017-03-02T06:11:36.569Z,17.51
2017-03-02T06:12:02.132Z,17.51
2017-03-02T06:12:28.325Z,17.53
2017-03-02T06:12:53.892Z,17.55
2017-03-02T06:13:20.146Z,17.5
2017-03-02T06:13:45.720Z,17.5
2017-03-02T06:14:11.361Z,17.54
2017-03-02T06:14:37.491Z,17.5
2017-03-02T06:15:03.049Z,17.48
2017-03-02T06:15:29.278Z,17.53
2017-03-02T06:15:54.842Z,17.54
2017-03-02T06:16:21.070Z,17.53
2017-03-02T06:16:46.635Z,17.57
2017-03-02T06:17:12.221Z,17.54
2017-03-02T06:17:38.404Z,17.55
2017-03-02T06:18:03.988Z,17.5
2017-03-02T06:18:30.206Z,17.55
2017-03-02T06:18:55.774Z,17.62
2017-03-02T06:19:21.340Z,17.55
2017-03-02T06:19:47.583Z,17.48
2017-03-02T06:20:13.155Z,17.59
2017-03-02T06:20:39.342Z,17.62
2017-03-02T06:21:04.911Z,17.5
2017-03-02T06:21:31.164Z,17.62
2017-03-02T06:21:56.742Z,17.62
2017-03-02T06:22:22.305Z,17.51
2017-03-02T06:22:48.484Z,17.51
2017-03-02T06:23:14.132Z,17.57
2017-03-02T06:23:40.298Z,17.62
2017-03-02T06:24:05.860Z,17.5
2017-03-02T06:24:31.462Z,17.5
2017-03-02T06:24:57.705Z,17.51
2017-03-02T06:25:23.265Z,17.5
2017-03-02T06:25:49.450Z,17.55
2017-03-02T06:26:14.998Z,17.55
2017-03-02T06:26:41.253Z,17.53
2017-03-02T06:27:06.809Z,17.59
2017-03-02T06:27:32.381Z,17.53
2017-03-02T06:27:58.562Z,17.57
2017-03-02T06:28:24.131Z,17.55
2017-03-02T06:28:51.319Z,17.57
2017-03-02T06:29:15.961Z,17.54
2017-03-02T06:29:41.516Z,17.54
2017-03-02T06:30:07.740Z,17.57
2017-03-02T06:30:33.309Z,17.53
2017-03-02T06:30:59.495Z,17.59
2017-03-02T06:31:25.275Z,17.48
2017-03-02T06:31:51.313Z,17.63
2017-03-02T06:32:17.510Z,17.51
2017-03-02T06:32:43.094Z,17.66
2017-03-02T06:33:08.658Z,17.51
2017-03-02T06:33:34.223Z,17.57
2017-03-02T06:34:00.460Z,17.66
2017-03-02T06:34:26.034Z,17.5
2017-03-02T06:34:51.765Z,17.55
2017-03-02T06:35:17.847Z,17.54
2017-03-02T06:35:43.490Z,17.66
2017-03-02T06:36:09.585Z,17.55
2017-03-02T06:36:35.151Z,17.57
2017-03-02T06:37:01.402Z,17.69
2017-03-02T06:37:26.965Z,17.59
2017-03-02T06:37:52.535Z,17.64
2017-03-02T06:38:18.761Z,17.51
2017-03-02T06:38:44.328Z,17.53
2017-03-02T06:39:10.545Z,17.54
2017-03-02T06:39:36.122Z,17.59
2017-03-02T06:40:01.678Z,17.5
2017-03-02T06:40:28.002Z,17.62
2017-03-02T06:40:53.562Z,17.69
2017-03-02T06:41:19.679Z,17.55
2017-03-02T06:41:45.247Z,17.53
2017-03-02T06:42:11.471Z,17.53
2017-03-02T06:42:37.041Z,17.62
2017-03-02T06:43:02.637Z,17.51
2017-03-02T06:43:28.839Z,17.54
2017-03-02T06:43:54.412Z,17.54
2017-03-02T06:44:20.613Z,17.63
2017-03-02T06:44:46.176Z,17.64
2017-03-02T06:45:11.751Z,17.59
2017-03-02T06:45:37.972Z,17.66
2017-03-02T06:46:03.542Z,17.66
2017-03-02T06:46:29.748Z,17.62
2017-03-02T06:46:55.309Z,17.69
2017-03-02T06:47:21.560Z,17.59
2017-03-02T06:47:47.904Z,17.53
2017-03-02T06:48:13.501Z,17.63
2017-03-02T06:48:39.065Z,17.66
2017-03-02T06:49:04.682Z,17.62
2017-03-02T06:49:30.701Z,17.66
2017-03-02T06:49:56.266Z,17.53
2017-03-02T06:50:21.834Z,17.66
2017-03-02T06:50:48.047Z,17.57
2017-03-02T06:51:13.643Z,17.64
2017-03-02T06:51:39.942Z,17.67
2017-03-02T06:52:05.591Z,17.55
2017-03-02T06:52:31.620Z,17.54
2017-03-02T06:52:57.179Z,17.57
2017-03-02T06:53:22.811Z,17.71
2017-03-02T06:53:48.960Z,17.51
2017-03-02T06:54:14.518Z,17.62
2017-03-02T06:54:40.767Z,17.51
2017-03-02T06:55:06.318Z,17.57
2017-03-02T06:55:31.883Z,17.66
2017-03-02T06:55:58.119Z,17.59
2017-03-02T06:56:23.709Z,17.57
2017-03-02T06:56:49.893Z,17.66
2017-03-02T06:57:15.459Z,17.69
2017-03-02T06:57:41.712Z,17.69
2017-03-02T06:58:07.392Z,17.51
2017-03-02T06:58:32.973Z,17.57
2017-03-02T06:58:59.045Z,17.51
2017-03-02T06:59:24.799Z,17.7
2017-03-02T06:59:50.855Z,17.62
2017-03-02T07:00:16.435Z,17.73
2017-03-02T07:00:41.995Z,17.55
2017-03-02T07:01:41.072Z,17.59
2017-03-02T07:02:06.641Z,17.55
2017-03-02T07:02:32.991Z,17.7
2017-03-02T07:02:58.455Z,17.66
2017-03-02T07:03:23.308Z,17.51
2017-03-02T07:03:48.859Z,17.51
2017-03-02T07:04:14.466Z,17.62
2017-03-02T07:04:39.998Z,17.51
2017-03-02T07:05:05.545Z,17.55
2017-03-02T07:05:31.155Z,17.55
2017-03-02T07:05:56.776Z,17.63
2017-03-02T07:06:22.335Z,17.66
2017-03-02T07:06:47.877Z,17.69
2017-03-02T07:07:13.431Z,17.54
2017-03-02T07:07:38.962Z,17.51
2017-03-02T07:08:04.519Z,17.53
2017-03-02T07:08:30.073Z,17.69
2017-03-02T07:08:55.618Z,17.63
2017-03-02T07:09:21.168Z,17.57
2017-03-02T07:09:46.727Z,17.7
2017-03-02T07:10:12.943Z,17.66
2017-03-02T07:10:38.662Z,17.73
2017-03-02T07:11:42.231Z,17.64
2017-03-02T07:12:07.802Z,17.64
2017-03-02T07:12:33.365Z,17.67
2017-03-02T07:12:59.000Z,17.59
2017-03-02T07:13:24.577Z,17.67
2017-03-02T07:13:50.144Z,17.55
2017-03-02T07:14:16.557Z,17.66
2017-03-02T07:14:41.231Z,17.55
2017-03-02T07:15:06.811Z,17.66
2017-03-02T07:15:32.371Z,17.69
2017-03-02T07:15:57.920Z,17.64
2017-03-02T07:16:23.574Z,17.55
2017-03-02T07:16:50.064Z,17.57
2017-03-02T07:17:14.772Z,17.66
2017-03-02T07:17:40.360Z,17.53
2017-03-02T07:18:06.569Z,17.66
2017-03-02T07:18:31.542Z,17.59
2017-03-02T07:18:58.065Z,17.54
2017-03-02T07:19:23.682Z,17.62
2017-03-02T07:19:49.241Z,17.57
2017-03-02T07:20:14.823Z,17.53
2017-03-02T07:20:40.428Z,17.62
2017-03-02T07:21:06.005Z,17.51
2017-03-02T07:21:31.552Z,17.62
2017-03-02T07:21:57.214Z,17.54
2017-03-02T07:22:22.836Z,17.67
2017-03-02T07:22:48.430Z,17.62
2017-03-02T07:23:14.001Z,17.67
2017-03-02T07:23:39.580Z,17.69
2017-03-02T07:24:05.138Z,17.59
2017-03-02T07:24:30.687Z,17.59
2017-03-02T07:24:56.264Z,17.57
2017-03-02T07:25:21.843Z,17.64
2017-03-02T07:25:47.427Z,17.57
2017-03-02T07:26:12.989Z,17.67
2017-03-02T07:26:38.554Z,17.54
2017-03-02T07:27:04.129Z,17.62
2017-03-02T07:27:29.695Z,17.7
2017-03-02T07:27:55.255Z,17.62
2017-03-02T07:28:20.810Z,17.55
2017-03-02T07:28:46.418Z,17.63
2017-03-02T07:29:11.949Z,17.67
2017-03-02T07:29:37.505Z,17.59
2017-03-02T07:30:03.071Z,17.64
2017-03-02T07:30:28.620Z,17.62
2017-03-02T07:30:54.179Z,17.64
2017-03-02T07:31:19.754Z,17.62
2017-03-02T07:31:45.340Z,17.57
2017-03-02T07:32:10.961Z,17.64
2017-03-02T07:32:37.069Z,17.55
2017-03-02T07:33:03.069Z,17.59
2017-03-02T07:33:27.727Z,17.55
2017-03-02T07:33:53.286Z,17.64
2017-03-02T07:34:19.723Z,17.62
2017-03-02T07:34:45.275Z,17.55
2017-03-02T07:35:10.841Z,17.69
2017-03-02T07:35:36.417Z,17.63
2017-03-02T07:36:01.982Z,17.62
2017-03-02T07:36:27.575Z,17.63
2017-03-02T07:36:53.136Z,17.62
2017-03-02T07:37:18.730Z,17.7
2017-03-02T07:37:44.273Z,17.64
2017-03-02T07:38:09.838Z,17.67
2017-03-02T07:38:35.412Z,17.63
2017-03-02T07:39:00.969Z,17.62
2017-03-02T07:39:26.546Z,17.62
2017-03-02T07:39:52.124Z,17.67
2017-03-02T07:40:17.680Z,17.63
2017-03-02T07:40:43.266Z,17.59
2017-03-02T07:41:08.841Z,17.64
2017-03-02T07:41:34.403Z,17.59
2017-03-02T07:42:00.021Z,17.63
2017-03-02T07:42:25.619Z,17.69
2017-03-02T07:42:51.206Z,17.59
2017-03-02T07:43:17.570Z,17.66
2017-03-02T07:43:42.420Z,17.55
2017-03-02T07:44:08.662Z,17.63
2017-03-02T07:44:34.230Z,17.59
2017-03-02T07:44:59.812Z,17.64
2017-03-02T07:45:25.377Z,17.69
2017-03-02T07:45:50.938Z,17.64
2017-03-02T07:46:16.560Z,17.66
2017-03-02T07:46:42.122Z,17.66
2017-03-02T07:47:07.678Z,17.66
2017-03-02T07:47:33.240Z,17.73
2017-03-02T07:47:58.807Z,17.7
2017-03-02T07:48:24.361Z,17.67
2017-03-02T07:48:50.575Z,17.62
2017-03-02T07:49:15.505Z,17.59
2017-03-02T07:49:41.076Z,17.64
2017-03-02T07:50:06.660Z,17.55
2017-03-02T07:50:32.228Z,17.57
2017-03-02T07:50:57.819Z,17.62
2017-03-02T07:51:24.327Z,17.63
2017-03-02T07:51:49.892Z,17.69
2017-03-02T07:52:15.458Z,17.67
2017-03-02T07:52:41.007Z,17.62
2017-03-02T07:53:06.595Z,17.64
2017-03-02T07:53:32.161Z,17.63
2017-03-02T07:53:57.709Z,17.67
2017-03-02T07:54:23.291Z,17.64
2017-03-02T07:54:48.871Z,17.7
2017-03-02T07:55:14.407Z,17.63
2017-03-02T07:55:39.966Z,17.66
2017-03-02T07:56:05.548Z,17.69
2017-03-02T07:56:31.168Z,17.69
2017-03-02T07:56:56.717Z,17.59
2017-03-02T07:57:23.072Z,17.59
2017-03-02T07:57:48.458Z,17.57
2017-03-02T07:58:14.029Z,17.59
2017-03-02T07:58:39.598Z,17.66
2017-03-02T07:59:05.241Z,17.62
2017-03-02T07:59:30.870Z,17.54
2017-03-02T07:59:57.077Z,17.59
2017-03-02T08:00:22.629Z,17.67
2017-03-02T08:00:48.951Z,17.59
2017-03-02T08:01:14.517Z,17.63
2017-03-02T08:01:40.096Z,17.63
2017-03-02T08:02:05.655Z,17.64
2017-03-02T08:02:31.214Z,17.66
2017-03-02T08:02:56.777Z,17.64
2017-03-02T08:03:22.348Z,17.74
2017-03-02T08:03:47.917Z,17.63
2017-03-02T08:04:13.510Z,17.69
2017-03-02T08:04:39.089Z,17.7
2017-03-02T08:05:04.670Z,17.62
2017-03-02T08:05:30.214Z,17.67
2017-03-02T08:05:56.283Z,17.55
2017-03-02T08:06:21.824Z,17.62
2017-03-02T08:06:47.408Z,17.62
2017-03-02T08:07:12.987Z,17.59
2017-03-02T08:07:38.552Z,17.63
2017-03-02T08:08:04.141Z,17.67
2017-03-02T08:08:29.710Z,17.62
2017-03-02T08:08:55.927Z,17.69
2017-03-02T08:09:21.490Z,17.69
2017-03-02T08:09:47.040Z,17.7
2017-03-02T08:10:12.600Z,17.63
2017-03-02T08:10:38.160Z,17.64
2017-03-02T08:11:03.717Z,17.57
2017-03-02T08:11:29.281Z,17.7
2017-03-02T08:11:54.852Z,17.63
2017-03-02T08:12:20.389Z,17.7
2017-03-02T08:12:45.957Z,17.63
2017-03-02T08:13:11.501Z,17.66
2017-03-02T08:13:37.210Z,17.67
2017-03-02T08:14:02.753Z,17.64
2017-03-02T08:14:28.306Z,17.64
2017-03-02T08:14:54.021Z,17.64
2017-03-02T08:15:19.614Z,17.67
2017-03-02T08:15:45.140Z,17.51
2017-03-02T08:16:10.699Z,17.67
2017-03-02T08:16:36.271Z,17.64
2017-03-02T08:17:01.825Z,17.7
2017-03-02T08:17:27.414Z,17.69
2017-03-02T08:18:15.783Z,17.64
2017-03-02T08:18:41.341Z,17.64
2017-03-02T08:19:06.900Z,17.63
2017-03-02T08:19:32.441Z,17.66
2017-03-02T08:19:58.007Z,17.63
2017-03-02T08:20:23.569Z,17.69
2017-03-02T08:20:49.161Z,17.69
2017-03-02T08:21:14.724Z,17.55
2017-03-02T08:21:40.279Z,17.62
2017-03-02T08:22:05.820Z,17.55
2017-03-02T08:22:31.379Z,17.62
2017-03-02T08:22:56.928Z,17.62
2017-03-02T08:23:22.502Z,17.66
2017-03-02T08:23:48.166Z,17.63
2017-03-02T08:24:13.821Z,17.63
2017-03-02T08:24:39.399Z,17.63
2017-03-02T08:25:04.946Z,17.66
2017-03-02T08:25:30.495Z,17.66
2017-03-02T08:25:56.053Z,17.66
2017-03-02T08:26:21.616Z,17.63
2017-03-02T08:26:47.182Z,17.67
2017-03-02T08:27:12.749Z,17.64
2017-03-02T08:27:38.301Z,17.63
2017-03-02T08:28:03.878Z,17.59
2017-03-02T08:28:29.520Z,17.69
2017-03-02T08:28:55.103Z,17.66
2017-03-02T08:29:20.682Z,17.67
2017-03-02T08:29:46.224Z,17.62
2017-03-02T08:30:11.777Z,17.67
2017-03-02T08:30:37.357Z,17.67
2017-03-02T08:31:02.919Z,17.66
2017-03-02T08:31:28.491Z,17.54
2017-03-02T08:31:54.058Z,17.63
2017-03-02T08:32:19.627Z,17.66
2017-03-02T08:32:45.191Z,17.67
2017-03-02T08:33:10.745Z,17.63
2017-03-02T08:33:36.301Z,17.69
2017-03-02T08:34:01.875Z,17.63
2017-03-02T08:34:27.446Z,17.66
2017-03-02T08:34:53.097Z,17.64
2017-03-02T08:35:18.676Z,17.62
2017-03-02T08:35:44.364Z,17.66
2017-03-02T08:36:10.007Z,17.57
2017-03-02T08:36:35.587Z,17.63
2017-03-02T08:37:01.155Z,17.64
2017-03-02T08:37:26.738Z,17.54
2017-03-02T08:37:52.309Z,17.63
2017-03-02T08:38:17.844Z,17.63
2017-03-02T08:38:43.421Z,17.63
2017-03-02T08:39:08.972Z,17.62
2017-03-02T08:39:34.536Z,17.62
2017-03-02T08:40:00.177Z,17.63
2017-03-02T08:40:25.752Z,17.69
2017-03-02T08:40:51.267Z,17.64
2017-03-02T08:41:16.811Z,17.69
2017-03-02T08:41:42.979Z,17.66
2017-03-02T08:42:07.921Z,17.62
2017-03-02T08:42:33.487Z,17.57
2017-03-02T08:42:59.015Z,17.64
2017-03-02T08:43:24.720Z,17.66
2017-03-02T08:43:50.291Z,17.63
2017-03-02T08:44:15.830Z,17.66
2017-03-02T08:44:41.385Z,17.69
2017-03-02T08:45:06.926Z,17.63
2017-03-02T08:45:32.500Z,17.59
2017-03-02T08:45:58.050Z,17.59
2017-03-02T08:46:23.605Z,17.66
2017-03-02T08:46:49.146Z,17.66
2017-03-02T08:47:14.732Z,17.64
2017-03-02T08:47:40.311Z,17.73
2017-03-02T08:48:05.873Z,17.67
2017-03-02T08:48:31.404Z,17.71
2017-03-02T08:48:56.959Z,17.64
2017-03-02T08:49:22.515Z,17.66
2017-03-02T08:49:48.064Z,17.67
2017-03-02T08:50:13.628Z,17.64
2017-03-02T08:50:39.193Z,17.63
2017-03-02T08:51:04.771Z,17.66
2017-03-02T08:51:30.352Z,17.59
2017-03-02T08:51:55.955Z,17.73
2017-03-02T08:52:21.508Z,17.59
2017-03-02T08:52:47.103Z,17.62
2017-03-02T08:53:12.671Z,17.57
2017-03-02T08:53:38.238Z,17.62
2017-03-02T08:54:03.827Z,17.7
2017-03-02T08:54:29.384Z,17.62
2017-03-02T08:54:54.976Z,17.63
2017-03-02T08:55:21.490Z,17.63
2017-03-02T08:55:47.050Z,17.64
2017-03-02T08:56:12.741Z,17.64
2017-03-02T08:56:38.297Z,17.7
2017-03-02T08:57:03.962Z,17.55
2017-03-02T08:57:29.538Z,17.62
2017-03-02T08:57:55.100Z,17.64
2017-03-02T08:58:20.684Z,17.55
2017-03-02T08:58:46.328Z,17.59
2017-03-02T08:59:11.927Z,17.66
2017-03-02T08:59:37.492Z,17.66
2017-03-02T09:00:03.066Z,17.55
2017-03-02T09:00:28.657Z,17.62
2017-03-02T09:00:54.227Z,17.59
2017-03-02T09:01:19.799Z,17.63
2017-03-02T09:01:45.356Z,17.67
2017-03-02T09:02:10.924Z,17.73
2017-03-02T09:02:37.501Z,17.59
2017-03-02T09:03:02.166Z,17.66
2017-03-02T09:03:27.723Z,17.7
2017-03-02T09:03:53.292Z,17.59
2017-03-02T09:04:18.847Z,17.59
2017-03-02T09:04:44.406Z,17.73
2017-03-02T09:05:11.000Z,17.59
2017-03-02T09:05:35.649Z,17.59
2017-03-02T09:06:01.273Z,17.63
2017-03-02T09:06:27.747Z,17.63
2017-03-02T09:06:53.342Z,17.66
2017-03-02T09:07:18.897Z,17.59
2017-03-02T09:07:44.465Z,17.63
2017-03-02T09:08:09.999Z,17.7
2017-03-02T09:08:36.498Z,17.63
2017-03-02T09:09:01.259Z,17.74
2017-03-02T09:09:26.813Z,17.62
2017-03-02T09:09:52.502Z,17.62
2017-03-02T09:10:18.067Z,17.57
2017-03-02T09:10:43.642Z,17.73
2017-03-02T09:11:09.207Z,17.62
2017-03-02T09:11:34.822Z,17.67
2017-03-02T09:12:00.380Z,17.63
2017-03-02T09:12:26.064Z,17.66
2017-03-02T09:12:51.637Z,17.63
2017-03-02T09:13:17.236Z,17.62
2017-03-02T09:13:42.807Z,17.59
2017-03-02T09:14:08.477Z,17.66
2017-03-02T09:14:34.042Z,17.64
2017-03-02T09:14:59.605Z,17.66
2017-03-02T09:15:25.325Z,17.63
2017-03-02T09:15:50.905Z,17.59
2017-03-02T09:16:17.002Z,17.64
2017-03-02T09:16:42.047Z,17.63
2017-03-02T09:17:07.731Z,17.63
2017-03-02T09:17:33.283Z,17.69
2017-03-02T09:17:58.855Z,17.67
2017-03-02T09:18:24.452Z,17.66
2017-03-02T09:18:49.999Z,17.69
2017-03-02T09:19:17.963Z,17.63
2017-03-02T09:19:43.530Z,17.62
2017-03-02T09:20:09.137Z,17.66
2017-03-02T09:20:34.736Z,17.63
2017-03-02T09:21:00.315Z,17.67
2017-03-02T09:21:25.893Z,17.55
2017-03-02T09:21:51.539Z,17.59
2017-03-02T09:22:17.105Z,17.57
2017-03-02T09:22:42.699Z,17.62
2017-03-02T09:23:08.326Z,17.71
2017-03-02T09:23:33.938Z,17.63
2017-03-02T09:23:59.496Z,17.67
2017-03-02T09:24:25.099Z,17.64
2017-03-02T09:24:50.741Z,17.7
2017-03-02T09:25:16.292Z,17.66
2017-03-02T09:25:41.838Z,17.59
2017-03-02T09:26:07.415Z,17.64
2017-03-02T09:26:33.018Z,17.7
2017-03-02T09:26:58.587Z,17.7
2017-03-02T09:27:24.150Z,17.63
2017-03-02T09:27:49.809Z,17.66
2017-03-02T09:28:15.399Z,17.59
2017-03-02T09:28:40.961Z,17.66
2017-03-02T09:29:06.520Z,17.64
2017-03-02T09:29:32.089Z,17.69
2017-03-02T09:29:57.657Z,17.55
2017-03-02T09:30:23.207Z,17.7
2017-03-02T09:30:48.761Z,17.62
2017-03-02T09:31:14.312Z,17.67
2017-03-02T09:31:40.662Z,17.63
2017-03-02T09:32:06.238Z,17.7
2017-03-02T09:32:31.788Z,17.64
2017-03-02T09:32:57.352Z,17.62
2017-03-02T09:33:22.915Z,17.55
2017-03-02T09:33:48.478Z,17.63
2017-03-02T09:34:14.040Z,17.63
2017-03-02T09:34:39.601Z,17.67